MET'MAP v2.0
soon released !

Expected late october,
this new version will be
more efficient, smarter,
and hosted on a brand new
server x3 powerfull...
...and still free !


Not compatible ?
Try the mobile version !

LOG IN : | Subscribe | Disclaimer | Who is Orbifly ? |
ICAO code :

TAF - UKLU Uzhhorod - 27 May 2020 18:58 UTC - Data Source NOAA   


- Airport Elevation : 383 ft
- IATA code : UDJ
- No reported NOTAMs.


UKLU - Uzhhorod

Latest METAR recorded : 2015/08/11 08:00 UKLU 110800Z 13002MPS 9999 SKC 30/14 Q1015 10090070 NOSIG
TAF TAF UKLU
Valid from the 27 at 15:00 until the 28 at 00:00 UTC


271402Z 2715/2724 06005MPS 9999 SCT040
TEMPO 2715/2721 VRB07G12MPS 2100 -TSRA BKN007 BKN020CB

Source NOAA


MET'MAP, your aeronautical weather chart ! - Copyright ORBIFLY December 2007

Programming & Development : Alexandra Zaïnal
Co-Developer : Marc-Olivier Méhu
Technical & hardware support : Manuel Goepfert
Concept & Financing : Baudouin d'Aumeries